sensor_id;sensor_type;location;lat;lon;timestamp;P1;durP1;ratioP1;P2;durP2;ratioP2
80322;SDS011;69636;52.372;13.610;2023-12-20T00:00:31;13.68;;;7.07;;
80322;SDS011;69636;52.372;13.610;2023-12-20T00:02:59;14.35;;;7.10;;
80322;SDS011;69636;52.372;13.610;2023-12-20T00:05:26;14.82;;;8.63;;
80322;SDS011;69636;52.372;13.610;2023-12-20T00:07:54;14.85;;;8.52;;
80322;SDS011;69636;52.372;13.610;2023-12-20T00:10:21;12.10;;;6.20;;
80322;SDS011;69636;52.372;13.610;2023-12-20T00:12:49;16.83;;;7.18;;
80322;SDS011;69636;52.372;13.610;2023-12-20T00:15:17;11.05;;;6.18;;
80322;SDS011;69636;52.372;13.610;2023-12-20T00:17:45;16.65;;;7.53;;
80322;SDS011;69636;52.372;13.610;2023-12-20T00:20:13;12.98;;;7.10;;
80322;SDS011;69636;52.372;13.610;2023-12-20T00:22:40;13.05;;;8.30;;
80322;SDS011;69636;52.372;13.610;2023-12-20T00:25:08;13.48;;;6.53;;
80322;SDS011;69636;52.372;13.610;2023-12-20T00:27:35;12.07;;;6.20;;
80322;SDS011;69636;52.372;13.610;2023-12-20T00:30:03;15.35;;;12.30;;
80322;SDS011;69636;52.372;13.610;2023-12-20T00:35:00;14.13;;;10.02;;
80322;SDS011;69636;52.372;13.610;2023-12-20T00:37:27;13.77;;;7.10;;
80322;SDS011;69636;52.372;13.610;2023-12-20T00:39:54;11.45;;;6.22;;
80322;SDS011;69636;52.372;13.610;2023-12-20T00:42:22;12.00;;;7.03;;
80322;SDS011;69636;52.372;13.610;2023-12-20T00:44:49;13.55;;;7.68;;
80322;SDS011;69636;52.372;13.610;2023-12-20T00:47:17;13.57;;;8.05;;
80322;SDS011;69636;52.372;13.610;2023-12-20T00:49:45;12.48;;;7.22;;
80322;SDS011;69636;52.372;13.610;2023-12-20T00:52:13;12.90;;;8.15;;
80322;SDS011;69636;52.372;13.610;2023-12-20T00:54:40;12.85;;;8.38;;
80322;SDS011;69636;52.372;13.610;2023-12-20T00:57:08;13.13;;;8.10;;
80322;SDS011;69636;52.372;13.610;2023-12-20T00:59:35;11.32;;;6.15;;
80322;SDS011;69636;52.372;13.610;2023-12-20T01:02:03;13.73;;;7.72;;
80322;SDS011;69636;52.372;13.610;2023-12-20T01:04:31;13.57;;;7.40;;
80322;SDS011;69636;52.372;13.610;2023-12-20T01:06:59;15.07;;;8.02;;
80322;SDS011;69636;52.372;13.610;2023-12-20T01:09:27;12.95;;;6.65;;
80322;SDS011;69636;52.372;13.610;2023-12-20T01:11:54;13.52;;;8.00;;
80322;SDS011;69636;52.372;13.610;2023-12-20T01:14:22;12.63;;;6.88;;
80322;SDS011;69636;52.372;13.610;2023-12-20T01:16:49;13.40;;;8.05;;
80322;SDS011;69636;52.372;13.610;2023-12-20T01:19:17;17.80;;;8.23;;
80322;SDS011;69636;52.372;13.610;2023-12-20T01:21:44;12.75;;;7.97;;
80322;SDS011;69636;52.372;13.610;2023-12-20T01:24:13;12.75;;;8.60;;
80322;SDS011;69636;52.372;13.610;2023-12-20T01:26:40;12.77;;;6.53;;
80322;SDS011;69636;52.372;13.610;2023-12-20T01:29:08;12.98;;;7.57;;
80322;SDS011;69636;52.372;13.610;2023-12-20T01:31:35;10.90;;;6.85;;
80322;SDS011;69636;52.372;13.610;2023-12-20T01:34:03;15.45;;;8.32;;
80322;SDS011;69636;52.372;13.610;2023-12-20T01:36:30;14.27;;;7.82;;
80322;SDS011;69636;52.372;13.610;2023-12-20T01:38:58;13.27;;;6.85;;
80322;SDS011;69636;52.372;13.610;2023-12-20T01:41:26;12.68;;;6.20;;
80322;SDS011;69636;52.372;13.610;2023-12-20T01:43:54;17.27;;;7.10;;
80322;SDS011;69636;52.372;13.610;2023-12-20T01:46:21;11.85;;;6.80;;
80322;SDS011;69636;52.372;13.610;2023-12-20T01:48:49;15.18;;;7.43;;
80322;SDS011;69636;52.372;13.610;2023-12-20T01:51:16;12.68;;;7.28;;
80322;SDS011;69636;52.372;13.610;2023-12-20T01:53:44;13.13;;;7.32;;
80322;SDS011;69636;52.372;13.610;2023-12-20T01:56:11;12.00;;;6.55;;
80322;SDS011;69636;52.372;13.610;2023-12-20T01:58:42;12.77;;;7.18;;
80322;SDS011;69636;52.372;13.610;2023-12-20T02:01:11;14.63;;;7.13;;
80322;SDS011;69636;52.372;13.610;2023-12-20T02:03:39;14.68;;;8.80;;
80322;SDS011;69636;52.372;13.610;2023-12-20T02:06:07;11.43;;;7.45;;
80322;SDS011;69636;52.372;13.610;2023-12-20T02:08:36;14.32;;;6.28;;
80322;SDS011;69636;52.372;13.610;2023-12-20T02:11:03;10.88;;;6.63;;
80322;SDS011;69636;52.372;13.610;2023-12-20T02:13:31;11.55;;;6.57;;
80322;SDS011;69636;52.372;13.610;2023-12-20T02:15:59;12.90;;;6.70;;
80322;SDS011;69636;52.372;13.610;2023-12-20T02:18:27;11.10;;;5.95;;
80322;SDS011;69636;52.372;13.610;2023-12-20T02:20:55;10.57;;;6.32;;
80322;SDS011;69636;52.372;13.610;2023-12-20T02:23:23;14.45;;;9.13;;
80322;SDS011;69636;52.372;13.610;2023-12-20T02:25:51;12.65;;;6.07;;
80322;SDS011;69636;52.372;13.610;2023-12-20T02:28:18;11.68;;;6.07;;
80322;SDS011;69636;52.372;13.610;2023-12-20T02:30:45;8.88;;;5.18;;
80322;SDS011;69636;52.372;13.610;2023-12-20T02:33:13;10.25;;;5.90;;
80322;SDS011;69636;52.372;13.610;2023-12-20T02:35:42;10.98;;;5.40;;
80322;SDS011;69636;52.372;13.610;2023-12-20T02:38:09;11.60;;;6.25;;
80322;SDS011;69636;52.372;13.610;2023-12-20T02:40:38;10.85;;;5.25;;
80322;SDS011;69636;52.372;13.610;2023-12-20T02:43:05;10.77;;;5.05;;
80322;SDS011;69636;52.372;13.610;2023-12-20T02:45:32;10.30;;;6.20;;
80322;SDS011;69636;52.372;13.610;2023-12-20T02:48:00;11.20;;;5.72;;
80322;SDS011;69636;52.372;13.610;2023-12-20T02:50:27;9.10;;;5.07;;
80322;SDS011;69636;52.372;13.610;2023-12-20T02:52:54;11.40;;;8.45;;
80322;SDS011;69636;52.372;13.610;2023-12-20T02:55:22;12.32;;;6.38;;
80322;SDS011;69636;52.372;13.610;2023-12-20T02:57:51;11.15;;;7.03;;
80322;SDS011;69636;52.372;13.610;2023-12-20T03:00:18;9.77;;;5.50;;
80322;SDS011;69636;52.372;13.610;2023-12-20T03:02:45;10.45;;;6.95;;
80322;SDS011;69636;52.372;13.610;2023-12-20T03:05:13;11.73;;;6.57;;
80322;SDS011;69636;52.372;13.610;2023-12-20T03:07:40;11.60;;;6.20;;
80322;SDS011;69636;52.372;13.610;2023-12-20T03:10:08;11.10;;;6.85;;
80322;SDS011;69636;52.372;13.610;2023-12-20T03:12:46;12.43;;;5.93;;
80322;SDS011;69636;52.372;13.610;2023-12-20T03:15:15;12.02;;;7.18;;
80322;SDS011;69636;52.372;13.610;2023-12-20T03:17:42;12.77;;;10.02;;
80322;SDS011;69636;52.372;13.610;2023-12-20T03:20:11;12.43;;;6.57;;
80322;SDS011;69636;52.372;13.610;2023-12-20T03:22:38;13.93;;;9.75;;
80322;SDS011;69636;52.372;13.610;2023-12-20T03:25:06;12.95;;;6.05;;
80322;SDS011;69636;52.372;13.610;2023-12-20T03:27:36;13.05;;;7.00;;
80322;SDS011;69636;52.372;13.610;2023-12-20T03:30:04;12.48;;;6.35;;
80322;SDS011;69636;52.372;13.610;2023-12-20T03:32:34;11.02;;;7.20;;
80322;SDS011;69636;52.372;13.610;2023-12-20T03:35:01;12.15;;;6.35;;
80322;SDS011;69636;52.372;13.610;2023-12-20T03:37:29;11.98;;;6.40;;
80322;SDS011;69636;52.372;13.610;2023-12-20T03:39:56;13.18;;;8.00;;
80322;SDS011;69636;52.372;13.610;2023-12-20T03:42:23;13.13;;;7.32;;
80322;SDS011;69636;52.372;13.610;2023-12-20T03:44:51;13.25;;;6.45;;
80322;SDS011;69636;52.372;13.610;2023-12-20T03:47:18;15.30;;;10.02;;
80322;SDS011;69636;52.372;13.610;2023-12-20T03:49:47;13.23;;;7.72;;
80322;SDS011;69636;52.372;13.610;2023-12-20T03:52:14;15.07;;;7.13;;
80322;SDS011;69636;52.372;13.610;2023-12-20T03:54:41;13.55;;;7.30;;
80322;SDS011;69636;52.372;13.610;2023-12-20T03:57:09;14.40;;;7.20;;
80322;SDS011;69636;52.372;13.610;2023-12-20T03:59:36;12.02;;;6.13;;
80322;SDS011;69636;52.372;13.610;2023-12-20T04:02:05;13.25;;;7.00;;
80322;SDS011;69636;52.372;13.610;2023-12-20T04:04:32;12.30;;;7.10;;
80322;SDS011;69636;52.372;13.610;2023-12-20T04:07:01;14.40;;;10.65;;
80322;SDS011;69636;52.372;13.610;2023-12-20T04:09:28;11.48;;;5.65;;
80322;SDS011;69636;52.372;13.610;2023-12-20T04:11:56;11.20;;;6.40;;
80322;SDS011;69636;52.372;13.610;2023-12-20T04:14:23;11.82;;;5.35;;
80322;SDS011;69636;52.372;13.610;2023-12-20T04:16:50;11.15;;;5.95;;
80322;SDS011;69636;52.372;13.610;2023-12-20T04:19:18;11.38;;;5.72;;
80322;SDS011;69636;52.372;13.610;2023-12-20T04:21:45;12.10;;;6.28;;
80322;SDS011;69636;52.372;13.610;2023-12-20T04:24:14;13.00;;;5.40;;
80322;SDS011;69636;52.372;13.610;2023-12-20T04:26:41;13.82;;;6.45;;
80322;SDS011;69636;52.372;13.610;2023-12-20T04:29:09;15.15;;;6.55;;
80322;SDS011;69636;52.372;13.610;2023-12-20T04:31:36;12.48;;;6.47;;
80322;SDS011;69636;52.372;13.610;2023-12-20T04:34:03;10.63;;;6.03;;
80322;SDS011;69636;52.372;13.610;2023-12-20T04:36:31;10.60;;;5.88;;
80322;SDS011;69636;52.372;13.610;2023-12-20T04:38:58;12.93;;;5.93;;
80322;SDS011;69636;52.372;13.610;2023-12-20T04:41:26;12.38;;;5.72;;
80322;SDS011;69636;52.372;13.610;2023-12-20T04:43:56;13.52;;;6.18;;
80322;SDS011;69636;52.372;13.610;2023-12-20T04:46:23;12.05;;;5.65;;
80322;SDS011;69636;52.372;13.610;2023-12-20T04:48:51;9.50;;;4.18;;
80322;SDS011;69636;52.372;13.610;2023-12-20T04:51:18;10.50;;;6.63;;
80322;SDS011;69636;52.372;13.610;2023-12-20T04:53:46;13.48;;;5.15;;
80322;SDS011;69636;52.372;13.610;2023-12-20T04:56:13;9.98;;;4.63;;
80322;SDS011;69636;52.372;13.610;2023-12-20T04:58:43;10.05;;;4.63;;
80322;SDS011;69636;52.372;13.610;2023-12-20T05:01:10;9.05;;;4.95;;
80322;SDS011;69636;52.372;13.610;2023-12-20T05:03:38;8.48;;;5.10;;
80322;SDS011;69636;52.372;13.610;2023-12-20T05:06:05;10.00;;;5.57;;
80322;SDS011;69636;52.372;13.610;2023-12-20T05:08:33;11.25;;;4.30;;
80322;SDS011;69636;52.372;13.610;2023-12-20T05:11:00;12.82;;;4.93;;
80322;SDS011;69636;52.372;13.610;2023-12-20T05:13:27;10.05;;;5.68;;
80322;SDS011;69636;52.372;13.610;2023-12-20T05:16:09;10.55;;;4.50;;
80322;SDS011;69636;52.372;13.610;2023-12-20T05:18:36;11.60;;;6.63;;
80322;SDS011;69636;52.372;13.610;2023-12-20T05:21:04;7.88;;;3.55;;
80322;SDS011;69636;52.372;13.610;2023-12-20T05:23:31;9.43;;;3.83;;
80322;SDS011;69636;52.372;13.610;2023-12-20T05:25:58;5.95;;;3.17;;
80322;SDS011;69636;52.372;13.610;2023-12-20T05:28:26;10.98;;;4.68;;
80322;SDS011;69636;52.372;13.610;2023-12-20T05:30:53;7.85;;;3.35;;
80322;SDS011;69636;52.372;13.610;2023-12-20T05:33:22;8.55;;;4.40;;
80322;SDS011;69636;52.372;13.610;2023-12-20T05:35:50;6.95;;;4.95;;
80322;SDS011;69636;52.372;13.610;2023-12-20T05:38:17;9.75;;;3.85;;
80322;SDS011;69636;52.372;13.610;2023-12-20T05:40:44;6.18;;;3.45;;
80322;SDS011;69636;52.372;13.610;2023-12-20T05:43:12;8.15;;;5.05;;
80322;SDS011;69636;52.372;13.610;2023-12-20T05:45:39;7.53;;;4.07;;
80322;SDS011;69636;52.372;13.610;2023-12-20T05:48:06;8.27;;;7.40;;
80322;SDS011;69636;52.372;13.610;2023-12-20T05:50:35;8.75;;;3.33;;
80322;SDS011;69636;52.372;13.610;2023-12-20T05:53:03;6.63;;;2.83;;
80322;SDS011;69636;52.372;13.610;2023-12-20T05:55:30;4.72;;;3.53;;
80322;SDS011;69636;52.372;13.610;2023-12-20T05:57:57;7.13;;;5.30;;
80322;SDS011;69636;52.372;13.610;2023-12-20T06:00:25;8.18;;;3.65;;
80322;SDS011;69636;52.372;13.610;2023-12-20T06:02:52;5.68;;;3.60;;
80322;SDS011;69636;52.372;13.610;2023-12-20T06:05:19;6.38;;;2.58;;
80322;SDS011;69636;52.372;13.610;2023-12-20T06:07:48;7.07;;;5.15;;
80322;SDS011;69636;52.372;13.610;2023-12-20T06:10:16;5.78;;;1.83;;
80322;SDS011;69636;52.372;13.610;2023-12-20T06:12:43;9.25;;;2.80;;
80322;SDS011;69636;52.372;13.610;2023-12-20T06:15:11;8.13;;;2.78;;
80322;SDS011;69636;52.372;13.610;2023-12-20T06:17:38;6.97;;;3.03;;
80322;SDS011;69636;52.372;13.610;2023-12-20T06:20:06;5.05;;;2.95;;
80322;SDS011;69636;52.372;13.610;2023-12-20T06:22:35;6.43;;;1.75;;
80322;SDS011;69636;52.372;13.610;2023-12-20T06:25:04;4.70;;;2.13;;
80322;SDS011;69636;52.372;13.610;2023-12-20T06:27:32;9.00;;;3.28;;
80322;SDS011;69636;52.372;13.610;2023-12-20T06:29:59;6.35;;;1.98;;
80322;SDS011;69636;52.372;13.610;2023-12-20T06:32:27;6.60;;;2.55;;
80322;SDS011;69636;52.372;13.610;2023-12-20T06:34:54;7.38;;;3.50;;
80322;SDS011;69636;52.372;13.610;2023-12-20T06:37:21;5.32;;;3.17;;
80322;SDS011;69636;52.372;13.610;2023-12-20T06:39:49;4.55;;;3.10;;
80322;SDS011;69636;52.372;13.610;2023-12-20T06:42:18;8.32;;;3.22;;
80322;SDS011;69636;52.372;13.610;2023-12-20T06:44:45;6.07;;;3.05;;
80322;SDS011;69636;52.372;13.610;2023-12-20T06:47:13;6.88;;;3.13;;
80322;SDS011;69636;52.372;13.610;2023-12-20T06:49:40;6.13;;;3.65;;
80322;SDS011;69636;52.372;13.610;2023-12-20T06:52:08;4.38;;;3.13;;
80322;SDS011;69636;52.372;13.610;2023-12-20T06:54:35;6.38;;;3.88;;
80322;SDS011;69636;52.372;13.610;2023-12-20T06:57:03;5.95;;;2.92;;
80322;SDS011;69636;52.372;13.610;2023-12-20T06:59:31;5.47;;;3.03;;
80322;SDS011;69636;52.372;13.610;2023-12-20T07:01:59;6.90;;;2.78;;
80322;SDS011;69636;52.372;13.610;2023-12-20T07:04:26;7.45;;;3.50;;
80322;SDS011;69636;52.372;13.610;2023-12-20T07:06:53;6.82;;;2.83;;
80322;SDS011;69636;52.372;13.610;2023-12-20T07:09:21;4.93;;;2.70;;
80322;SDS011;69636;52.372;13.610;2023-12-20T07:11:48;9.85;;;6.47;;
80322;SDS011;69636;52.372;13.610;2023-12-20T07:14:16;7.85;;;3.22;;
80322;SDS011;69636;52.372;13.610;2023-12-20T07:16:44;5.47;;;3.33;;
80322;SDS011;69636;52.372;13.610;2023-12-20T07:19:12;7.70;;;4.03;;
80322;SDS011;69636;52.372;13.610;2023-12-20T07:21:39;6.88;;;3.08;;
80322;SDS011;69636;52.372;13.610;2023-12-20T07:24:06;5.38;;;3.00;;
80322;SDS011;69636;52.372;13.610;2023-12-20T07:26:34;6.72;;;3.63;;
80322;SDS011;69636;52.372;13.610;2023-12-20T07:29:02;7.28;;;4.32;;
80322;SDS011;69636;52.372;13.610;2023-12-20T07:31:29;7.00;;;3.30;;
80322;SDS011;69636;52.372;13.610;2023-12-20T07:33:58;8.57;;;3.45;;
80322;SDS011;69636;52.372;13.610;2023-12-20T07:36:25;6.05;;;3.55;;
80322;SDS011;69636;52.372;13.610;2023-12-20T07:38:53;6.53;;;3.33;;
80322;SDS011;69636;52.372;13.610;2023-12-20T07:41:20;8.95;;;2.88;;
80322;SDS011;69636;52.372;13.610;2023-12-20T07:43:47;3.28;;;2.67;;
80322;SDS011;69636;52.372;13.610;2023-12-20T07:46:15;6.88;;;4.20;;
80322;SDS011;69636;52.372;13.610;2023-12-20T07:48:42;7.20;;;3.17;;
80322;SDS011;69636;52.372;13.610;2023-12-20T07:51:13;4.97;;;2.55;;
80322;SDS011;69636;52.372;13.610;2023-12-20T07:53:41;3.60;;;2.58;;
80322;SDS011;69636;52.372;13.610;2023-12-20T07:56:14;4.00;;;3.58;;
80322;SDS011;69636;52.372;13.610;2023-12-20T07:58:42;5.90;;;3.47;;
80322;SDS011;69636;52.372;13.610;2023-12-20T08:01:19;4.93;;;2.13;;
80322;SDS011;69636;52.372;13.610;2023-12-20T08:03:48;5.28;;;4.50;;
80322;SDS011;69636;52.372;13.610;2023-12-20T08:06:17;5.25;;;3.60;;
80322;SDS011;69636;52.372;13.610;2023-12-20T08:08:45;8.13;;;2.85;;
80322;SDS011;69636;52.372;13.610;2023-12-20T08:11:18;7.22;;;2.10;;
80322;SDS011;69636;52.372;13.610;2023-12-20T08:13:46;7.03;;;2.05;;
80322;SDS011;69636;52.372;13.610;2023-12-20T08:16:13;5.88;;;1.90;;
80322;SDS011;69636;52.372;13.610;2023-12-20T08:18:40;4.43;;;2.22;;
80322;SDS011;69636;52.372;13.610;2023-12-20T08:21:08;8.25;;;3.35;;
80322;SDS011;69636;52.372;13.610;2023-12-20T08:23:37;5.75;;;2.80;;
80322;SDS011;69636;52.372;13.610;2023-12-20T08:26:04;6.55;;;3.63;;
80322;SDS011;69636;52.372;13.610;2023-12-20T08:28:32;5.47;;;1.95;;
80322;SDS011;69636;52.372;13.610;2023-12-20T08:30:59;4.93;;;2.75;;
80322;SDS011;69636;52.372;13.610;2023-12-20T08:33:27;7.00;;;3.53;;
80322;SDS011;69636;52.372;13.610;2023-12-20T08:35:55;6.25;;;3.60;;
80322;SDS011;69636;52.372;13.610;2023-12-20T08:38:22;4.35;;;3.13;;
80322;SDS011;69636;52.372;13.610;2023-12-20T08:40:51;7.25;;;2.58;;
80322;SDS011;69636;52.372;13.610;2023-12-20T08:43:18;6.78;;;2.92;;
80322;SDS011;69636;52.372;13.610;2023-12-20T08:45:45;4.43;;;2.97;;
80322;SDS011;69636;52.372;13.610;2023-12-20T08:48:13;3.25;;;1.85;;
80322;SDS011;69636;52.372;13.610;2023-12-20T08:50:40;6.68;;;2.40;;
80322;SDS011;69636;52.372;13.610;2023-12-20T08:53:08;5.53;;;2.47;;
80322;SDS011;69636;52.372;13.610;2023-12-20T08:55:35;4.70;;;2.05;;
80322;SDS011;69636;52.372;13.610;2023-12-20T08:58:04;7.53;;;3.70;;
80322;SDS011;69636;52.372;13.610;2023-12-20T09:00:31;6.05;;;3.55;;
80322;SDS011;69636;52.372;13.610;2023-12-20T09:02:59;5.40;;;2.35;;
80322;SDS011;69636;52.372;13.610;2023-12-20T09:05:26;8.40;;;2.78;;
80322;SDS011;69636;52.372;13.610;2023-12-20T09:07:53;6.15;;;2.83;;
80322;SDS011;69636;52.372;13.610;2023-12-20T09:10:21;5.57;;;2.60;;
80322;SDS011;69636;52.372;13.610;2023-12-20T09:12:49;7.15;;;2.60;;
80322;SDS011;69636;52.372;13.610;2023-12-20T09:15:18;7.68;;;6.97;;
80322;SDS011;69636;52.372;13.610;2023-12-20T09:17:45;3.33;;;2.35;;
80322;SDS011;69636;52.372;13.610;2023-12-20T09:20:13;7.40;;;2.75;;
80322;SDS011;69636;52.372;13.610;2023-12-20T09:22:40;5.30;;;1.83;;
80322;SDS011;69636;52.372;13.610;2023-12-20T09:25:09;5.35;;;3.22;;
80322;SDS011;69636;52.372;13.610;2023-12-20T09:27:37;7.22;;;2.13;;
80322;SDS011;69636;52.372;13.610;2023-12-20T09:30:05;6.70;;;2.22;;
80322;SDS011;69636;52.372;13.610;2023-12-20T09:32:34;5.55;;;3.13;;
80322;SDS011;69636;52.372;13.610;2023-12-20T09:35:01;4.88;;;1.90;;
80322;SDS011;69636;52.372;13.610;2023-12-20T09:37:29;5.88;;;2.30;;
80322;SDS011;69636;52.372;13.610;2023-12-20T09:39:57;7.07;;;2.95;;
80322;SDS011;69636;52.372;13.610;2023-12-20T09:42:28;5.38;;;2.97;;
80322;SDS011;69636;52.372;13.610;2023-12-20T09:45:02;7.57;;;6.85;;
80322;SDS011;69636;52.372;13.610;2023-12-20T09:47:35;3.92;;;2.10;;
80322;SDS011;69636;52.372;13.610;2023-12-20T09:50:03;6.22;;;5.70;;
80322;SDS011;69636;52.372;13.610;2023-12-20T09:54:58;7.07;;;2.17;;
80322;SDS011;69636;52.372;13.610;2023-12-20T09:57:28;4.60;;;2.38;;
80322;SDS011;69636;52.372;13.610;2023-12-20T09:59:55;5.82;;;3.80;;
80322;SDS011;69636;52.372;13.610;2023-12-20T10:02:23;7.20;;;2.63;;
80322;SDS011;69636;52.372;13.610;2023-12-20T10:04:55;6.10;;;2.58;;
80322;SDS011;69636;52.372;13.610;2023-12-20T10:07:23;6.38;;;3.42;;
80322;SDS011;69636;52.372;13.610;2023-12-20T10:09:52;3.88;;;2.85;;
80322;SDS011;69636;52.372;13.610;2023-12-20T10:12:21;6.05;;;5.03;;
80322;SDS011;69636;52.372;13.610;2023-12-20T10:14:49;4.75;;;2.10;;
80322;SDS011;69636;52.372;13.610;2023-12-20T10:17:17;5.40;;;1.83;;
80322;SDS011;69636;52.372;13.610;2023-12-20T10:19:45;7.05;;;6.57;;
80322;SDS011;69636;52.372;13.610;2023-12-20T10:22:14;5.15;;;3.00;;
80322;SDS011;69636;52.372;13.610;2023-12-20T10:24:56;4.20;;;3.90;;
80322;SDS011;69636;52.372;13.610;2023-12-20T10:27:23;8.00;;;3.10;;
80322;SDS011;69636;52.372;13.610;2023-12-20T10:29:51;4.00;;;2.70;;
80322;SDS011;69636;52.372;13.610;2023-12-20T10:32:22;3.35;;;2.22;;
80322;SDS011;69636;52.372;13.610;2023-12-20T10:34:51;3.88;;;2.67;;
80322;SDS011;69636;52.372;13.610;2023-12-20T10:37:20;7.45;;;5.13;;
80322;SDS011;69636;52.372;13.610;2023-12-20T10:39:49;7.38;;;3.33;;
80322;SDS011;69636;52.372;13.610;2023-12-20T10:42:17;3.13;;;2.10;;
80322;SDS011;69636;52.372;13.610;2023-12-20T10:44:47;3.92;;;2.60;;
80322;SDS011;69636;52.372;13.610;2023-12-20T10:47:15;4.00;;;2.38;;
80322;SDS011;69636;52.372;13.610;2023-12-20T10:49:44;4.55;;;2.28;;
80322;SDS011;69636;52.372;13.610;2023-12-20T10:52:12;6.03;;;4.18;;
80322;SDS011;69636;52.372;13.610;2023-12-20T10:54:41;7.05;;;3.88;;
80322;SDS011;69636;52.372;13.610;2023-12-20T10:57:09;3.92;;;2.80;;
80322;SDS011;69636;52.372;13.610;2023-12-20T10:59:36;6.45;;;2.97;;
80322;SDS011;69636;52.372;13.610;2023-12-20T11:02:04;4.90;;;2.60;;
80322;SDS011;69636;52.372;13.610;2023-12-20T11:04:36;4.50;;;2.33;;
80322;SDS011;69636;52.372;13.610;2023-12-20T11:07:10;4.53;;;2.58;;
80322;SDS011;69636;52.372;13.610;2023-12-20T11:09:49;5.82;;;2.15;;
80322;SDS011;69636;52.372;13.610;2023-12-20T11:12:25;5.82;;;2.58;;
80322;SDS011;69636;52.372;13.610;2023-12-20T11:15:02;7.22;;;2.75;;
80322;SDS011;69636;52.372;13.610;2023-12-20T11:17:31;5.55;;;2.25;;
80322;SDS011;69636;52.372;13.610;2023-12-20T11:20:06;6.50;;;2.17;;
80322;SDS011;69636;52.372;13.610;2023-12-20T11:22:35;6.75;;;2.80;;
80322;SDS011;69636;52.372;13.610;2023-12-20T11:25:09;4.05;;;2.58;;
80322;SDS011;69636;52.372;13.610;2023-12-20T11:27:40;6.97;;;2.33;;
80322;SDS011;69636;52.372;13.610;2023-12-20T11:30:09;4.68;;;2.40;;
80322;SDS011;69636;52.372;13.610;2023-12-20T11:32:37;6.97;;;4.00;;
80322;SDS011;69636;52.372;13.610;2023-12-20T11:35:19;8.10;;;3.65;;
80322;SDS011;69636;52.372;13.610;2023-12-20T11:37:46;3.67;;;1.67;;
80322;SDS011;69636;52.372;13.610;2023-12-20T11:40:16;3.75;;;1.80;;
80322;SDS011;69636;52.372;13.610;2023-12-20T11:42:45;3.75;;;2.15;;
80322;SDS011;69636;52.372;13.610;2023-12-20T11:45:17;8.55;;;4.03;;
80322;SDS011;69636;52.372;13.610;2023-12-20T11:47:46;5.63;;;2.42;;
80322;SDS011;69636;52.372;13.610;2023-12-20T11:50:15;7.82;;;2.30;;
80322;SDS011;69636;52.372;13.610;2023-12-20T11:52:43;3.60;;;1.83;;
80322;SDS011;69636;52.372;13.610;2023-12-20T11:55:10;6.50;;;2.38;;
80322;SDS011;69636;52.372;13.610;2023-12-20T11:57:39;5.30;;;2.00;;
80322;SDS011;69636;52.372;13.610;2023-12-20T12:00:07;5.20;;;2.88;;
80322;SDS011;69636;52.372;13.610;2023-12-20T12:02:34;4.93;;;3.08;;
80322;SDS011;69636;52.372;13.610;2023-12-20T12:05:02;7.13;;;2.85;;
80322;SDS011;69636;52.372;13.610;2023-12-20T12:07:29;7.15;;;3.05;;
80322;SDS011;69636;52.372;13.610;2023-12-20T12:09:57;6.10;;;2.03;;
80322;SDS011;69636;52.372;13.610;2023-12-20T12:12:24;6.78;;;2.53;;
80322;SDS011;69636;52.372;13.610;2023-12-20T12:14:54;5.60;;;2.17;;
80322;SDS011;69636;52.372;13.610;2023-12-20T12:17:21;4.85;;;2.08;;
80322;SDS011;69636;52.372;13.610;2023-12-20T12:19:49;6.15;;;2.13;;
80322;SDS011;69636;52.372;13.610;2023-12-20T12:22:16;6.68;;;3.42;;
80322;SDS011;69636;52.372;13.610;2023-12-20T12:24:44;8.15;;;2.63;;
80322;SDS011;69636;52.372;13.610;2023-12-20T12:27:12;6.00;;;2.30;;
80322;SDS011;69636;52.372;13.610;2023-12-20T12:29:40;6.00;;;2.08;;
80322;SDS011;69636;52.372;13.610;2023-12-20T12:32:09;6.80;;;2.63;;
80322;SDS011;69636;52.372;13.610;2023-12-20T12:34:37;4.78;;;2.22;;
80322;SDS011;69636;52.372;13.610;2023-12-20T12:37:04;6.43;;;2.95;;
80322;SDS011;69636;52.372;13.610;2023-12-20T12:39:32;7.68;;;3.00;;
80322;SDS011;69636;52.372;13.610;2023-12-20T12:41:59;3.40;;;2.33;;
80322;SDS011;69636;52.372;13.610;2023-12-20T12:44:27;4.38;;;2.13;;
80322;SDS011;69636;52.372;13.610;2023-12-20T12:46:54;6.03;;;3.40;;
80322;SDS011;69636;52.372;13.610;2023-12-20T12:49:23;3.65;;;1.88;;
80322;SDS011;69636;52.372;13.610;2023-12-20T12:51:50;7.13;;;2.60;;
80322;SDS011;69636;52.372;13.610;2023-12-20T12:54:18;6.07;;;2.47;;
80322;SDS011;69636;52.372;13.610;2023-12-20T12:56:45;4.43;;;2.45;;
80322;SDS011;69636;52.372;13.610;2023-12-20T12:59:12;6.22;;;2.72;;
80322;SDS011;69636;52.372;13.610;2023-12-20T13:01:40;6.50;;;6.00;;
80322;SDS011;69636;52.372;13.610;2023-12-20T13:04:07;8.65;;;2.78;;
80322;SDS011;69636;52.372;13.610;2023-12-20T13:06:36;5.15;;;3.45;;
80322;SDS011;69636;52.372;13.610;2023-12-20T13:09:04;5.38;;;2.42;;
80322;SDS011;69636;52.372;13.610;2023-12-20T13:11:32;5.07;;;2.47;;
80322;SDS011;69636;52.372;13.610;2023-12-20T13:14:01;4.30;;;3.78;;
80322;SDS011;69636;52.372;13.610;2023-12-20T13:16:28;4.07;;;2.60;;
80322;SDS011;69636;52.372;13.610;2023-12-20T13:18:56;4.15;;;3.28;;
80322;SDS011;69636;52.372;13.610;2023-12-20T13:21:24;6.57;;;3.55;;
80322;SDS011;69636;52.372;13.610;2023-12-20T13:23:52;5.70;;;2.92;;
80322;SDS011;69636;52.372;13.610;2023-12-20T13:26:19;8.70;;;2.90;;
80322;SDS011;69636;52.372;13.610;2023-12-20T13:28:47;6.90;;;3.70;;
80322;SDS011;69636;52.372;13.610;2023-12-20T13:31:14;8.20;;;7.40;;
80322;SDS011;69636;52.372;13.610;2023-12-20T13:33:42;6.13;;;2.85;;
80322;SDS011;69636;52.372;13.610;2023-12-20T13:36:09;6.00;;;3.20;;
80322;SDS011;69636;52.372;13.610;2023-12-20T13:38:36;6.80;;;3.67;;
80322;SDS011;69636;52.372;13.610;2023-12-20T13:41:05;5.25;;;4.22;;
80322;SDS011;69636;52.372;13.610;2023-12-20T13:43:33;7.15;;;3.83;;
80322;SDS011;69636;52.372;13.610;2023-12-20T13:46:01;5.97;;;2.67;;
80322;SDS011;69636;52.372;13.610;2023-12-20T13:48:29;5.70;;;2.85;;
80322;SDS011;69636;52.372;13.610;2023-12-20T13:50:56;6.40;;;4.43;;
80322;SDS011;69636;52.372;13.610;2023-12-20T13:53:23;5.75;;;3.42;;
80322;SDS011;69636;52.372;13.610;2023-12-20T13:55:51;8.10;;;3.40;;
80322;SDS011;69636;52.372;13.610;2023-12-20T13:58:20;6.38;;;3.40;;
80322;SDS011;69636;52.372;13.610;2023-12-20T14:00:47;4.65;;;3.22;;
80322;SDS011;69636;52.372;13.610;2023-12-20T14:03:14;4.47;;;2.60;;
80322;SDS011;69636;52.372;13.610;2023-12-20T14:05:42;4.60;;;3.22;;
80322;SDS011;69636;52.372;13.610;2023-12-20T14:08:09;8.43;;;4.57;;
80322;SDS011;69636;52.372;13.610;2023-12-20T14:10:36;4.57;;;3.20;;
80322;SDS011;69636;52.372;13.610;2023-12-20T14:13:04;4.70;;;3.35;;
80322;SDS011;69636;52.372;13.610;2023-12-20T14:15:33;6.07;;;4.68;;
80322;SDS011;69636;52.372;13.610;2023-12-20T14:18:00;3.72;;;2.55;;
80322;SDS011;69636;52.372;13.610;2023-12-20T14:20:27;5.32;;;3.22;;
80322;SDS011;69636;52.372;13.610;2023-12-20T14:22:54;7.50;;;3.65;;
80322;SDS011;69636;52.372;13.610;2023-12-20T14:25:22;5.55;;;2.60;;
80322;SDS011;69636;52.372;13.610;2023-12-20T14:27:49;6.65;;;3.90;;
80322;SDS011;69636;52.372;13.610;2023-12-20T14:30:17;6.70;;;4.13;;
80322;SDS011;69636;52.372;13.610;2023-12-20T14:32:45;8.93;;;5.05;;
80322;SDS011;69636;52.372;13.610;2023-12-20T14:35:13;9.10;;;5.45;;
80322;SDS011;69636;52.372;13.610;2023-12-20T14:37:41;8.18;;;4.38;;
80322;SDS011;69636;52.372;13.610;2023-12-20T14:40:09;10.60;;;9.40;;